Time;durP1;ratioP1;P1;durP2;ratioP2;P2;SDS_P1;SDS_P2;PMS_P1;PMS_P2;Temp;Humidity;BMP_temperature;BMP_pressure;BME280_temperature;BME280_humidity;BME280_pressure;Samples;Min_cycle;Max_cycle;Signal;HPM_P1;HPM_P2
2022/07/02 00:00:19;;;;;;;;;;;;;;;22.61;49.64;101481.25;2099156;28;1198;-47
2022/07/02 00:01:20;;;;;;;;;;;;;;;22.57;50.11;101488.53;2099140;28;1490;-49
2022/07/02 00:02:21;;;;;;;;;;;;;;;22.56;49.96;101494.00;2099140;28;1011;-48
2022/07/02 00:03:29;;;;;;;;;;;;;;;22.54;49.74;101487.78;2098902;28;1212;-48
2022/07/02 00:04:31;;;;;;;;;;;;;;;22.55;50.05;101481.44;2099255;28;1288;-51
2022/07/02 00:05:32;;;;;;;;;;;;;;;22.61;49.92;101476.72;2098120;28;1190;-52
2022/07/02 00:06:35;;;;;;;;;;;;;;;22.64;50.17;101464.94;2096711;28;1024;-52
2022/07/02 00:07:35;;;;;;;;;;;;;;;22.64;49.89;101456.84;2096194;28;1039;-52
2022/07/02 00:08:35;;;;;;;;;;;;;;;22.63;50.08;101449.69;2098711;28;1949;-52
2022/07/02 00:09:36;;;;;;;;;;;;;;;22.59;50.64;101440.78;2099228;28;1122;-48
2022/07/02 00:10:37;;;;;;;;;;;;;;;22.60;50.07;101436.28;2099264;28;1055;-48
2022/07/02 00:11:38;;;;;;;;;;;;;;;22.56;50.13;101432.78;2099000;28;1201;-48
2022/07/02 00:12:40;;;;;;;;;;;;;;;22.54;50.70;101420.28;2099034;28;1129;-48
2022/07/02 00:13:40;;;;;;;;;;;;;;;22.50;50.71;101401.47;2098985;28;1209;-49
2022/07/02 00:14:40;;;;;;;;;;;;;;;22.48;50.41;101411.44;2096886;28;1104;-50
2022/07/02 00:15:40;;;;;;;;;;;;;;;22.48;50.31;101394.34;2098415;28;999;-49
2022/07/02 00:16:45;;;;;;;;;;;;;;;22.46;50.65;101390.81;2099080;28;1125;-47
2022/07/02 00:17:45;;;;;;;;;;;;;;;22.44;50.27;101379.19;2098990;28;1196;-49
2022/07/02 00:18:45;;;;;;;;;;;;;;;22.44;49.72;101376.47;2090102;28;1122;-48
2022/07/02 00:19:45;;;;;;;;;;;;;;;22.47;49.77;101370.97;2090094;28;1083;-51
2022/07/02 00:20:46;;;;;;;;;;;;;;;22.50;49.82;101373.56;2098888;28;1207;-51
2022/07/02 00:21:47;;;;;;;;;;;;;;;22.55;49.61;101373.44;2098979;28;1027;-51
2022/07/02 00:22:47;;;;;;;;;;;;;;;22.57;49.34;101380.53;2098968;28;999;-51
2022/07/02 00:23:48;;;;;;;;;;;;;;;22.67;49.13;101372.13;2098862;28;1115;-53
2022/07/02 00:24:49;;;;;;;;;;;;;;;22.68;48.75;101358.56;2098109;28;1051;-52
2022/07/02 00:25:54;;;;;;;;;;;;;;;22.72;48.45;101348.56;2098940;28;1118;-53
2022/07/02 00:26:57;;;;;;;;;;;;;;;22.72;48.14;101353.97;2099020;28;1130;-52
2022/07/02 00:27:57;;;;;;;;;;;;;;;22.73;48.88;101350.31;2098629;28;1973;-51
2022/07/02 00:29:01;;;;;;;;;;;;;;;22.68;48.79;101357.69;2098925;28;1197;-48
2022/07/02 00:30:02;;;;;;;;;;;;;;;22.63;48.79;101347.94;2099026;28;999;-48
2022/07/02 00:31:02;;;;;;;;;;;;;;;22.59;49.07;101348.09;2098511;28;1334;-49
2022/07/02 00:32:03;;;;;;;;;;;;;;;22.54;49.66;101342.84;2098917;28;1119;-48
2022/07/02 00:33:03;;;;;;;;;;;;;;;22.54;48.84;101339.28;2098893;28;1166;-47
2022/07/02 00:34:08;;;;;;;;;;;;;;;22.54;49.52;101345.53;2098871;28;1264;-47
2022/07/02 00:35:09;;;;;;;;;;;;;;;22.51;49.55;101348.34;2097775;28;1054;-51
2022/07/02 00:36:21;;;;;;;;;;;;;;;22.49;49.78;101344.81;2098737;28;1198;-50
2022/07/02 00:37:21;;;;;;;;;;;;;;;22.50;49.46;101338.47;2098975;28;1118;-49
2022/07/02 00:38:22;;;;;;;;;;;;;;;22.55;49.51;101341.91;2099023;28;1039;-53
2022/07/02 00:39:22;;;;;;;;;;;;;;;22.60;49.53;101350.75;2098883;28;1055;-53
2022/07/02 00:40:23;;;;;;;;;;;;;;;22.64;48.92;101346.13;2098980;28;992;-52
2022/07/02 00:41:24;;;;;;;;;;;;;;;22.67;49.47;101353.22;2098914;28;1056;-52
2022/07/02 00:42:25;;;;;;;;;;;;;;;22.68;49.31;101353.16;2099054;28;1063;-53
2022/07/02 00:43:25;;;;;;;;;;;;;;;22.67;50.00;101345.13;2098963;28;1085;-49
2022/07/02 00:44:26;;;;;;;;;;;;;;;22.62;50.28;101343.47;2098640;28;1163;-49
2022/07/02 00:45:26;;;;;;;;;;;;;;;22.59;49.85;101338.16;2098319;28;1201;-47
2022/07/02 00:46:28;;;;;;;;;;;;;;;22.57;49.97;101340.03;2099089;28;1170;-47
2022/07/02 00:47:29;;;;;;;;;;;;;;;22.56;50.30;101343.69;2099055;28;1114;-47
2022/07/02 00:48:30;;;;;;;;;;;;;;;22.55;50.29;101336.50;2098994;28;1977;-49
2022/07/02 00:49:33;;;;;;;;;;;;;;;22.55;50.31;101335.66;2098853;28;1129;-52
2022/07/02 00:50:33;;;;;;;;;;;;;;;22.59;50.68;101338.16;2098896;28;1103;-49
2022/07/02 00:51:34;;;;;;;;;;;;;;;22.61;50.93;101340.84;2098828;28;1292;-52
2022/07/02 00:52:34;;;;;;;;;;;;;;;22.63;51.00;101347.94;2098872;28;1127;-50
2022/07/02 00:53:34;;;;;;;;;;;;;;;22.70;51.40;101343.19;2098778;28;1177;-53
2022/07/02 00:54:38;;;;;;;;;;;;;;;22.74;51.11;101342.16;2097893;28;1118;-52
2022/07/02 00:55:38;;;;;;;;;;;;;;;22.73;50.90;101334.13;2098799;28;1118;-53
2022/07/02 00:56:38;;;;;;;;;;;;;;;22.75;51.42;101324.16;2098823;28;1052;-53
2022/07/02 00:57:38;;;;;;;;;;;;;;;22.71;50.93;101309.00;2098711;28;1126;-52
2022/07/02 00:58:39;;;;;;;;;;;;;;;22.69;51.03;101306.31;2098711;28;1127;-49
2022/07/02 00:59:40;;;;;;;;;;;;;;;22.65;51.40;101302.88;2098712;28;1191;-49
2022/07/02 01:00:40;;;;;;;;;;;;;;;22.62;51.43;101311.06;2098695;28;1198;-48
2022/07/02 01:01:40;;;;;;;;;;;;;;;22.59;51.89;101313.88;2098728;28;1237;-48
2022/07/02 01:02:42;;;;;;;;;;;;;;;22.58;51.47;101313.94;2098701;28;1307;-49
2022/07/02 01:03:44;;;;;;;;;;;;;;;22.58;52.04;101313.94;2098555;28;1150;-48
2022/07/02 01:04:45;;;;;;;;;;;;;;;22.61;52.14;101319.25;2097593;28;1177;-52
2022/07/02 01:05:45;;;;;;;;;;;;;;;22.68;52.08;101317.19;2098343;28;1007;-52
2022/07/02 01:06:48;;;;;;;;;;;;;;;22.68;51.60;101303.69;2098386;28;1174;-50
2022/07/02 01:10:16;;;;;;;;;;;;;;;22.68;51.37;101301.84;2098642;28;1143;-50
2022/07/02 01:10:29;;;;;;;;;;;;;;;22.61;51.66;101290.41;2097050;28;876;-48
2022/07/02 01:11:30;;;;;;;;;;;;;;;22.59;51.58;101276.06;2089746;28;1071;-47
2022/07/02 01:12:30;;;;;;;;;;;;;;;22.58;52.25;101273.44;2089900;28;1118;-47
2022/07/02 01:13:31;;;;;;;;;;;;;;;22.52;52.46;101271.81;2098542;28;1134;-48
2022/07/02 01:14:32;;;;;;;;;;;;;;;22.56;53.25;101273.47;2097683;28;1074;-48
2022/07/02 01:15:32;;;;;;;;;;;;;;;22.55;53.15;101270.84;2098935;28;1059;-48
2022/07/02 01:16:33;;;;;;;;;;;;;;;22.55;54.31;101277.13;2098800;28;1134;-50
2022/07/02 01:17:33;;;;;;;;;;;;;;;22.55;54.53;101276.25;2098648;28;1122;-49
2022/07/02 01:18:34;;;;;;;;;;;;;;;22.54;54.62;101283.44;2098704;28;1114;-49
2022/07/02 01:19:34;;;;;;;;;;;;;;;22.55;55.37;101287.91;2098240;28;1095;-52
2022/07/02 01:20:34;;;;;;;;;;;;;;;22.57;55.25;101296.84;2098598;28;1174;-51
2022/07/02 01:21:36;;;;;;;;;;;;;;;22.59;54.69;101294.09;2098616;28;1007;-49
2022/07/02 01:22:38;;;;;;;;;;;;;;;22.60;55.09;101302.13;2098511;28;1044;-51
2022/07/02 01:23:38;;;;;;;;;;;;;;;22.63;54.80;101302.03;2098549;28;1117;-52
2022/07/02 01:24:38;;;;;;;;;;;;;;;22.64;54.18;101293.00;2097492;28;1053;-51
2022/07/02 01:25:38;;;;;;;;;;;;;;;22.61;54.17;101289.53;2098463;28;1118;-53
2022/07/02 01:26:39;;;;;;;;;;;;;;;22.63;53.29;101295.75;2098639;28;1039;-53
2022/07/02 01:27:39;;;;;;;;;;;;;;;22.62;52.81;101300.28;2089323;28;1308;-52
2022/07/02 01:28:40;;;;;;;;;;;;;;;22.60;52.64;101301.28;2089660;28;1902;-49
2022/07/02 01:29:40;;;;;;;;;;;;;;;22.54;52.38;101296.09;2098637;28;1105;-48
2022/07/02 01:30:40;;;;;;;;;;;;;;;22.49;52.43;101294.41;2098608;28;1144;-47
2022/07/02 01:31:41;;;;;;;;;;;;;;;22.47;52.19;101290.00;2098591;28;1036;-47
2022/07/02 01:32:41;;;;;;;;;;;;;;;22.43;51.45;101297.28;2098651;28;1083;-48
2022/07/02 01:33:41;;;;;;;;;;;;;;;22.41;51.30;101288.38;2098558;28;1050;-47
2022/07/02 01:34:43;;;;;;;;;;;;;;;22.40;51.54;101285.69;2097539;28;1032;-51
2022/07/02 01:35:44;;;;;;;;;;;;;;;22.40;51.38;101283.00;2098560;28;1031;-49
2022/07/02 01:36:44;;;;;;;;;;;;;;;22.40;50.47;101281.19;2098630;28;1177;-48
2022/07/02 01:37:44;;;;;;;;;;;;;;;22.42;50.43;101283.84;2098507;28;1242;-51
2022/07/02 01:38:44;;;;;;;;;;;;;;;22.46;50.31;101282.81;2098663;28;1071;-53
2022/07/02 01:39:45;;;;;;;;;;;;;;;22.50;50.08;101280.00;2098448;28;1133;-53
2022/07/02 01:40:45;;;;;;;;;;;;;;;22.55;49.61;101277.13;2098487;28;1004;-50
2022/07/02 01:41:45;;;;;;;;;;;;;;;22.54;50.00;101274.47;2098440;28;1028;-52
2022/07/02 01:42:45;;;;;;;;;;;;;;;22.52;49.57;101269.13;2098481;28;1067;-52
2022/07/02 01:43:46;;;;;;;;;;;;;;;22.48;49.50;101267.47;2098444;28;1078;-48
2022/07/02 01:44:46;;;;;;;;;;;;;;;22.46;49.66;101266.63;2097651;28;1083;-48
2022/07/02 01:45:46;;;;;;;;;;;;;;;22.43;49.66;101273.00;2098612;28;1063;-48
2022/07/02 01:46:46;;;;;;;;;;;;;;;22.40;49.54;101264.09;2098516;28;1127;-47
2022/07/02 01:47:47;;;;;;;;;;;;;;;22.38;50.08;101266.88;2098413;28;1067;-48
2022/07/02 01:48:47;;;;;;;;;;;;;;;22.35;49.63;101275.97;2098394;28;1969;-50
2022/07/02 01:49:47;;;;;;;;;;;;;;;22.41;49.83;101276.66;2098441;28;1079;-52
2022/07/02 01:50:47;;;;;;;;;;;;;;;22.45;49.63;101275.66;2098605;28;1078;-51
2022/07/02 01:51:48;;;;;;;;;;;;;;;22.48;49.48;101275.56;2098409;28;1052;-50
2022/07/02 01:52:48;;;;;;;;;;;;;;;22.45;49.76;101276.56;2098492;28;1079;-51
2022/07/02 01:53:48;;;;;;;;;;;;;;;22.54;49.58;101277.19;2098594;28;1118;-53
2022/07/02 01:54:48;;;;;;;;;;;;;;;22.57;49.99;101283.34;2089729;28;1154;-53
2022/07/02 01:55:48;;;;;;;;;;;;;;;22.58;49.36;101284.25;2089558;28;1183;-53
2022/07/02 01:56:49;;;;;;;;;;;;;;;22.59;49.83;101275.22;2098478;28;1146;-54
2022/07/02 01:57:49;;;;;;;;;;;;;;;22.57;49.60;101274.38;2098421;28;1166;-52
2022/07/02 01:58:49;;;;;;;;;;;;;;;22.53;50.19;101270.03;2098450;28;1126;-52
2022/07/02 01:59:50;;;;;;;;;;;;;;;22.49;50.08;101272.81;2098296;28;1171;-49
2022/07/02 02:00:50;;;;;;;;;;;;;;;22.42;50.12;101265.84;2098343;28;1133;-48
2022/07/02 02:01:50;;;;;;;;;;;;;;;22.42;50.49;101273.03;2089403;28;1150;-48
2022/07/02 02:02:50;;;;;;;;;;;;;;;22.39;50.71;101279.44;2089601;28;1115;-48
2022/07/02 02:03:51;;;;;;;;;;;;;;;22.40;50.57;101283.00;2098376;28;1082;-50
2022/07/02 02:04:51;;;;;;;;;;;;;;;22.43;50.56;101277.50;2097442;28;1126;-51
2022/07/02 02:05:51;;;;;;;;;;;;;;;22.48;50.79;101275.56;2098353;28;1123;-50
2022/07/02 02:06:52;;;;;;;;;;;;;;;22.47;50.72;101263.91;2098493;28;1079;-50
2022/07/02 02:07:52;;;;;;;;;;;;;;;22.50;50.67;101263.78;2098316;28;1130;-53
2022/07/02 02:08:52;;;;;;;;;;;;;;;22.48;49.88;101253.97;2098364;28;1898;-51
2022/07/02 02:09:53;;;;;;;;;;;;;;;22.48;50.45;101259.38;2098354;28;1182;-51
2022/07/02 02:10:53;;;;;;;;;;;;;;;22.46;50.08;101255.84;2098383;28;1079;-48
2022/07/02 02:11:53;;;;;;;;;;;;;;;22.44;49.90;101260.41;2098290;28;1059;-48
2022/07/02 02:12:53;;;;;;;;;;;;;;;22.41;50.03;101255.06;2098358;28;1138;-49
2022/07/02 02:13:54;;;;;;;;;;;;;;;22.40;50.16;101256.91;2098349;28;1183;-48
2022/07/02 02:14:55;;;;;;;;;;;;;;;22.35;49.97;101262.47;2097330;28;1166;-48
2022/07/02 02:15:55;;;;;;;;;;;;;;;22.33;50.13;101250.84;2098334;28;1170;-49
2022/07/02 02:16:55;;;;;;;;;;;;;;;22.32;49.48;101251.78;2098469;28;1059;-48
2022/07/02 02:17:56;;;;;;;;;;;;;;;22.32;49.76;101249.09;2098322;28;1114;-47
2022/07/02 02:18:57;;;;;;;;;;;;;;;22.36;49.48;101242.66;2098402;28;1118;-49
2022/07/02 02:19:57;;;;;;;;;;;;;;;22.39;49.40;101232.66;2098340;28;1003;-51
2022/07/02 02:20:57;;;;;;;;;;;;;;;22.42;49.13;101237.94;2098438;28;1035;-51
2022/07/02 02:21:57;;;;;;;;;;;;;;;22.44;49.39;101236.09;2098324;28;1122;-49
2022/07/02 02:23:00;;;;;;;;;;;;;;;22.48;49.27;101232.38;2098432;28;1051;-52
2022/07/02 02:24:00;;;;;;;;;;;;;;;22.52;49.03;101217.81;2098262;28;1063;-51
2022/07/02 02:25:00;;;;;;;;;;;;;;;22.55;48.73;101219.56;2089804;28;1075;-52
2022/07/02 02:26:01;;;;;;;;;;;;;;;22.56;49.40;101219.47;2089569;28;1070;-52
2022/07/02 02:27:01;;;;;;;;;;;;;;;22.57;48.72;101215.84;2098508;28;1067;-52
2022/07/02 02:28:01;;;;;;;;;;;;;;;22.57;48.99;101218.53;2098013;28;1919;-50
2022/07/02 02:29:02;;;;;;;;;;;;;;;22.52;49.13;101216.97;2098364;28;1078;-49
2022/07/02 02:30:02;;;;;;;;;;;;;;;22.46;49.32;101216.25;2098414;28;1127;-48
2022/07/02 02:31:03;;;;;;;;;;;;;;;22.45;49.24;101216.28;2098723;28;1074;-48
2022/07/02 02:32:03;;;;;;;;;;;;;;;22.43;49.83;101212.72;2099967;28;1118;-48
2022/07/02 02:33:03;;;;;;;;;;;;;;;22.42;49.38;101213.66;2099945;28;1071;-47
2022/07/02 02:34:03;;;;;;;;;;;;;;;22.42;49.92;101210.97;2099880;28;1174;-48
2022/07/02 02:35:04;;;;;;;;;;;;;;;22.37;49.92;101213.81;2098878;28;1114;-49
2022/07/02 02:36:05;;;;;;;;;;;;;;;22.38;50.10;101206.59;2099829;28;1314;-48
2022/07/02 02:37:05;;;;;;;;;;;;;;;22.39;50.18;101213.75;2099907;28;1173;-48
2022/07/02 02:38:05;;;;;;;;;;;;;;;22.40;50.48;101207.44;2099819;28;1114;-52
2022/07/02 02:39:05;;;;;;;;;;;;;;;22.47;50.37;101215.31;2099905;28;1170;-52
2022/07/02 02:40:06;;;;;;;;;;;;;;;22.50;50.33;101206.19;2099901;28;1094;-52
2022/07/02 02:41:07;;;;;;;;;;;;;;;22.54;49.89;101205.16;2099927;28;1118;-51
2022/07/02 02:42:07;;;;;;;;;;;;;;;22.52;50.20;101207.03;2099899;28;1177;-52
2022/07/02 02:43:07;;;;;;;;;;;;;;;22.54;50.03;101209.69;2099997;28;1255;-49
2022/07/02 02:44:07;;;;;;;;;;;;;;;22.49;50.77;101210.72;2099983;28;1141;-48
2022/07/02 02:45:08;;;;;;;;;;;;;;;22.48;50.99;101211.66;2098935;28;1150;-47
2022/07/02 02:46:09;;;;;;;;;;;;;;;22.45;51.41;101214.47;2099910;28;1102;-48
2022/07/02 02:47:09;;;;;;;;;;;;;;;22.46;51.05;101207.25;2099988;28;1127;-48
2022/07/02 02:48:09;;;;;;;;;;;;;;;22.46;51.33;101202.75;2090833;28;1894;-48
2022/07/02 02:49:09;;;;;;;;;;;;;;;22.42;51.21;101209.16;2091242;28;1044;-50
2022/07/02 02:50:09;;;;;;;;;;;;;;;22.44;51.51;101201.91;2099857;28;1051;-50
2022/07/02 02:51:13;;;;;;;;;;;;;;;22.48;51.98;101199.97;2100026;28;1156;-51
2022/07/02 02:52:14;;;;;;;;;;;;;;;22.50;51.68;101201.69;2099828;28;1156;-49
2022/07/02 02:53:14;;;;;;;;;;;;;;;22.49;51.66;101202.63;2099811;28;1111;-53
2022/07/02 02:54:14;;;;;;;;;;;;;;;22.57;51.42;101210.44;2099775;28;991;-52
2022/07/02 02:55:14;;;;;;;;;;;;;;;22.56;51.34;101210.53;2098774;28;1079;-52
2022/07/02 02:56:14;;;;;;;;;;;;;;;22.59;51.91;101207.72;2099703;28;1117;-52
2022/07/02 02:57:14;;;;;;;;;;;;;;;22.60;51.44;101212.16;2099799;28;1126;-52
2022/07/02 02:58:14;;;;;;;;;;;;;;;22.56;51.83;101210.53;2099665;28;1071;-49
2022/07/02 02:59:15;;;;;;;;;;;;;;;22.52;51.96;101228.63;2099732;28;1058;-48
2022/07/02 03:00:15;;;;;;;;;;;;;;;22.49;52.49;101232.34;2099749;28;1052;-48
2022/07/02 03:01:15;;;;;;;;;;;;;;;22.48;52.62;101238.66;2099833;28;1063;-47
2022/07/02 03:02:15;;;;;;;;;;;;;;;22.45;51.99;101235.16;2099769;28;1059;-47
2022/07/02 03:03:15;;;;;;;;;;;;;;;22.46;52.34;101245.03;2099695;28;1211;-49
2022/07/02 03:04:16;;;;;;;;;;;;;;;22.43;52.62;101242.41;2099605;28;1062;-49
2022/07/02 03:05:16;;;;;;;;;;;;;;;22.48;51.98;101235.06;2098747;28;1054;-53
2022/07/02 03:06:16;;;;;;;;;;;;;;;22.50;52.10;101235.91;2099820;28;1182;-52
2022/07/02 03:07:16;;;;;;;;;;;;;;;22.51;52.48;101243.06;2099862;28;1117;-51
2022/07/02 03:08:16;;;;;;;;;;;;;;;22.49;51.91;101235.03;2099731;28;1955;-52
2022/07/02 03:09:17;;;;;;;;;;;;;;;22.52;52.36;101231.31;2099790;28;1086;-49
2022/07/02 03:10:17;;;;;;;;;;;;;;;22.49;52.51;101226.03;2099834;28;1103;-48
2022/07/02 03:11:17;;;;;;;;;;;;;;;22.47;53.31;101209.00;2099673;28;1029;-48
2022/07/02 03:12:17;;;;;;;;;;;;;;;22.46;54.11;101220.75;2099614;28;1074;-48
2022/07/02 03:13:17;;;;;;;;;;;;;;;22.43;53.89;101219.00;2099727;28;1078;-48
2022/07/02 03:14:17;;;;;;;;;;;;;;;22.43;54.17;101215.41;2099613;28;1217;-47
2022/07/02 03:15:18;;;;;;;;;;;;;;;22.43;55.01;101212.72;2099020;28;1083;-48
2022/07/02 03:16:18;;;;;;;;;;;;;;;22.42;55.14;101214.56;2098913;28;968;-49
2022/07/02 03:17:18;;;;;;;;;;;;;;;22.41;55.62;101215.50;2099667;28;1208;-49
2022/07/02 03:18:19;;;;;;;;;;;;;;;22.40;55.37;101219.13;2099510;28;1114;-49
2022/07/02 03:19:19;;;;;;;;;;;;;;;22.40;54.84;101220.91;2099461;28;1106;-51
2022/07/02 03:20:19;;;;;;;;;;;;;;;22.42;54.58;101227.16;2099380;28;1300;-50
2022/07/02 03:21:19;;;;;;;;;;;;;;;22.41;55.05;101220.88;2099480;28;1166;-51
2022/07/02 03:22:19;;;;;;;;;;;;;;;22.41;54.09;101225.38;2099465;28;1098;-50
2022/07/02 03:23:20;;;;;;;;;;;;;;;22.44;53.69;101226.22;2099530;28;1051;-54
2022/07/02 03:24:20;;;;;;;;;;;;;;;22.47;53.66;101236.00;2099431;28;1206;-52
2022/07/02 03:25:20;;;;;;;;;;;;;;;22.46;52.75;101223.44;2099353;28;1248;-53
2022/07/02 03:26:20;;;;;;;;;;;;;;;22.46;52.20;101221.63;2098462;28;989;-53
2022/07/02 03:27:20;;;;;;;;;;;;;;;22.45;52.14;101216.28;2099303;28;1238;-51
2022/07/02 03:28:21;;;;;;;;;;;;;;;22.43;52.17;101219.00;2099347;28;1910;-49
2022/07/02 03:29:21;;;;;;;;;;;;;;;22.40;51.48;101226.31;2099422;28;1169;-49
2022/07/02 03:30:21;;;;;;;;;;;;;;;22.34;51.41;101231.03;2099422;28;1154;-47
2022/07/02 03:31:21;;;;;;;;;;;;;;;22.34;50.46;101230.13;2099395;28;1043;-48
2022/07/02 03:32:25;;;;;;;;;;;;;;;22.32;50.84;101232.00;2099393;28;1114;-48
2022/07/02 03:33:25;;;;;;;;;;;;;;;22.31;50.37;101230.22;2099347;28;1174;-47
2022/07/02 03:34:25;;;;;;;;;;;;;;;22.28;50.49;101236.63;2099649;28;1111;-49
2022/07/02 03:35:26;;;;;;;;;;;;;;;22.31;50.11;101241.03;2099336;28;1183;-48
2022/07/02 03:36:26;;;;;;;;;;;;;;;22.27;50.33;101252.84;2098362;28;1099;-48
2022/07/02 03:37:28;;;;;;;;;;;;;;;22.27;50.17;101242.97;2099403;28;1119;-49
2022/07/02 03:38:28;;;;;;;;;;;;;;;22.32;49.75;101238.28;2099413;28;1178;-53
2022/07/02 03:39:28;;;;;;;;;;;;;;;22.35;50.44;101240.00;2099435;28;1323;-52
2022/07/02 03:40:29;;;;;;;;;;;;;;;22.39;49.95;101248.84;2099385;28;1125;-52
2022/07/02 03:41:29;;;;;;;;;;;;;;;22.40;49.50;101240.72;2099340;28;1123;-51
2022/07/02 03:42:29;;;;;;;;;;;;;;;22.39;49.85;101249.75;2099115;28;1138;-53
2022/07/02 03:43:29;;;;;;;;;;;;;;;22.38;49.56;101244.38;2099286;28;1134;-50
2022/07/02 03:44:29;;;;;;;;;;;;;;;22.35;49.60;101248.97;2090440;28;1127;-48
2022/07/02 03:45:29;;;;;;;;;;;;;;;22.32;49.94;101243.69;2090452;28;1420;-49
2022/07/02 03:46:29;;;;;;;;;;;;;;;22.29;49.87;101249.19;2089539;28;1111;-48
2022/07/02 03:47:30;;;;;;;;;;;;;;;22.27;50.47;101236.66;2090355;28;1250;-49
2022/07/02 03:48:30;;;;;;;;;;;;;;;22.24;50.84;101232.28;2099329;28;1943;-48
2022/07/02 03:49:30;;;;;;;;;;;;;;;22.25;50.29;101250.22;2099349;28;1055;-51
2022/07/02 03:50:30;;;;;;;;;;;;;;;22.31;50.26;101243.72;2099416;28;1082;-49
2022/07/02 03:51:30;;;;;;;;;;;;;;;22.35;50.22;101242.69;2099230;28;1142;-50
2022/07/02 03:52:30;;;;;;;;;;;;;;;22.35;50.22;101235.50;2099204;28;948;-49
2022/07/02 03:53:30;;;;;;;;;;;;;;;22.39;50.38;101232.66;2099216;28;1171;-53
2022/07/02 03:54:31;;;;;;;;;;;;;;;22.43;50.21;101239.72;2099263;28;1099;-52
2022/07/02 03:55:31;;;;;;;;;;;;;;;22.43;50.79;101242.41;2099109;28;1183;-52
2022/07/02 03:56:31;;;;;;;;;;;;;;;22.43;50.67;101239.72;2098242;28;1032;-53
2022/07/02 03:57:31;;;;;;;;;;;;;;;22.41;50.50;101239.78;2099259;28;1176;-50
2022/07/02 03:58:31;;;;;;;;;;;;;;;22.41;50.34;101238.88;2099329;28;1028;-48
2022/07/02 03:59:32;;;;;;;;;;;;;;;22.37;51.24;101232.72;2099183;28;1043;-48
2022/07/02 04:00:32;;;;;;;;;;;;;;;22.34;51.27;101239.13;2099291;28;1043;-49
2022/07/02 04:01:32;;;;;;;;;;;;;;;22.29;51.38;101233.00;2099257;28;1145;-48
2022/07/02 04:02:32;;;;;;;;;;;;;;;22.62;50.08;101240.88;2099346;28;1039;-47
2022/07/02 04:03:33;;;;;;;;;;;;;;;23.18;48.92;101233.41;2090421;28;1158;-47
2022/07/02 04:04:33;;;;;;;;;;;;;;;23.42;48.26;101227.13;2090432;28;1142;-48
2022/07/02 04:05:33;;;;;;;;;;;;;;;23.54;47.90;101227.56;2099137;28;1063;-48
2022/07/02 04:06:33;;;;;;;;;;;;;;;23.64;47.23;101229.88;2098358;28;1156;-49
2022/07/02 04:07:33;;;;;;;;;;;;;;;23.74;46.65;101235.81;2099157;28;995;-51
2022/07/02 04:08:33;;;;;;;;;;;;;;;23.83;46.43;101240.84;2099388;28;1963;-52
2022/07/02 04:09:33;;;;;;;;;;;;;;;23.94;45.73;101243.97;2099249;28;1134;-51
2022/07/02 04:10:34;;;;;;;;;;;;;;;23.97;45.37;101238.41;2099310;28;1127;-52
2022/07/02 04:11:34;;;;;;;;;;;;;;;24.01;45.17;101241.94;2099204;28;1133;-51
2022/07/02 04:12:34;;;;;;;;;;;;;;;24.06;44.87;101241.72;2099308;28;1174;-51
2022/07/02 04:13:34;;;;;;;;;;;;;;;24.09;45.04;101247.91;2099111;28;1162;-50
2022/07/02 04:14:34;;;;;;;;;;;;;;;24.15;45.11;101241.34;2099295;28;1217;-48
2022/07/02 04:15:34;;;;;;;;;;;;;;;24.16;45.12;101242.22;2099129;28;1260;-47
2022/07/02 04:16:35;;;;;;;;;;;;;;;24.18;44.47;101240.31;2099127;28;1080;-49
2022/07/02 04:17:35;;;;;;;;;;;;;;;24.23;44.49;101238.28;2098250;28;1050;-48
2022/07/02 04:18:35;;;;;;;;;;;;;;;24.26;43.95;101240.88;2099155;28;1051;-47
2022/07/02 04:19:35;;;;;;;;;;;;;;;24.26;44.40;101232.75;2099018;28;1201;-50
2022/07/02 04:20:35;;;;;;;;;;;;;;;24.34;43.96;101241.44;2098898;28;1259;-52
2022/07/02 04:21:35;;;;;;;;;;;;;;;24.36;44.39;101236.81;2098995;28;1138;-50
2022/07/02 04:22:36;;;;;;;;;;;;;;;24.37;43.82;101240.44;2099043;28;1166;-51
2022/07/02 04:23:36;;;;;;;;;;;;;;;24.36;44.14;101236.81;2098986;28;1130;-53
2022/07/02 04:24:36;;;;;;;;;;;;;;;24.38;44.46;101243.06;2099069;28;1139;-51
2022/07/02 04:25:37;;;;;;;;;;;;;;;24.37;44.02;101245.84;2099020;28;1122;-52
2022/07/02 04:26:37;;;;;;;;;;;;;;;24.36;44.52;101234.13;2099014;28;1161;-53
2022/07/02 04:27:37;;;;;;;;;;;;;;;24.38;44.29;101234.06;2097556;28;1345;-51
2022/07/02 04:28:37;;;;;;;;;;;;;;;24.35;44.47;101234.19;2090151;28;1909;-49
2022/07/02 04:29:38;;;;;;;;;;;;;;;24.35;45.28;101243.19;2090154;28;1059;-49
2022/07/02 04:30:38;;;;;;;;;;;;;;;24.33;44.68;101236.97;2098984;28;1291;-47
2022/07/02 04:31:38;;;;;;;;;;;;;;;24.38;45.06;101236.78;2098685;28;1051;-48
2022/07/02 04:32:38;;;;;;;;;;;;;;;24.42;44.90;101235.69;2090081;28;1705;-49
2022/07/02 04:33:39;;;;;;;;;;;;;;;24.42;45.50;101233.84;2090042;28;1099;-47
2022/07/02 04:34:39;;;;;;;;;;;;;;;24.43;45.11;101237.47;2098937;28;1122;-48
2022/07/02 04:35:39;;;;;;;;;;;;;;;24.47;44.86;101241.78;2098900;28;1275;-49
2022/07/02 04:36:39;;;;;;;;;;;;;;;24.43;45.19;101230.22;2098924;28;1265;-49
2022/07/02 04:37:40;;;;;;;;;;;;;;;24.47;45.58;101236.34;2097791;28;1055;-50
2022/07/02 04:38:40;;;;;;;;;;;;;;;24.43;45.77;101235.63;2098957;28;1138;-53
2022/07/02 04:39:40;;;;;;;;;;;;;;;24.50;45.39;101240.78;2098875;28;1302;-52
2022/07/02 04:40:41;;;;;;;;;;;;;;;24.53;45.34;101237.94;2099009;28;1130;-50
2022/07/02 04:41:41;;;;;;;;;;;;;;;24.53;45.37;101235.22;2098959;28;1130;-53
2022/07/02 04:42:41;;;;;;;;;;;;;;;24.55;45.59;101244.16;2098875;28;1127;-51
2022/07/02 04:43:41;;;;;;;;;;;;;;;24.53;45.82;101244.22;2098940;28;1238;-51
2022/07/02 04:44:41;;;;;;;;;;;;;;;24.58;45.68;101239.47;2098919;28;1119;-49
2022/07/02 04:45:41;;;;;;;;;;;;;;;24.63;45.68;101242.00;2098805;28;1118;-48
2022/07/02 04:46:41;;;;;;;;;;;;;;;24.65;45.36;101234.69;2098843;28;1250;-48
2022/07/02 04:47:42;;;;;;;;;;;;;;;24.63;45.67;101242.00;2098076;28;1047;-51
2022/07/02 04:48:42;;;;;;;;;;;;;;;24.67;45.73;101240.03;2098587;28;1897;-48
2022/07/02 04:49:42;;;;;;;;;;;;;;;24.73;45.22;101236.19;2098808;28;1147;-51
2022/07/02 04:50:42;;;;;;;;;;;;;;;24.80;45.43;101237.66;2098929;28;1415;-51
2022/07/02 04:51:42;;;;;;;;;;;;;;;24.81;45.21;101231.28;2098729;28;1106;-51
2022/07/02 04:52:47;;;;;;;;;;;;;;;24.82;45.68;101242.06;2098846;28;1083;-52
2022/07/02 04:53:47;;;;;;;;;;;;;;;24.79;45.66;101241.31;2098291;28;1035;-52
2022/07/02 04:54:47;;;;;;;;;;;;;;;24.71;46.19;101230.81;2098843;28;1201;-51
2022/07/02 04:55:47;;;;;;;;;;;;;;;24.72;45.63;101232.59;2098724;28;1078;-52
2022/07/02 04:56:48;;;;;;;;;;;;;;;24.69;45.73;101230.88;2098829;28;1039;-52
2022/07/02 04:57:49;;;;;;;;;;;;;;;24.74;45.71;101233.41;2098691;28;1091;-51
2022/07/02 04:58:49;;;;;;;;;;;;;;;24.71;45.94;101237.13;2097680;28;1129;-50
2022/07/02 04:59:49;;;;;;;;;;;;;;;24.76;46.16;101244.16;2098680;28;1133;-48
2022/07/02 05:00:49;;;;;;;;;;;;;;;24.77;46.13;101243.22;2098708;28;1130;-49
2022/07/02 05:01:51;;;;;;;;;;;;;;;24.76;46.39;101246.88;2098757;28;1271;-47
2022/07/02 05:02:51;;;;;;;;;;;;;;;24.79;46.13;101246.72;2098747;28;1106;-49
2022/07/02 05:03:51;;;;;;;;;;;;;;;24.75;45.95;101234.28;2098705;28;1189;-49
2022/07/02 05:04:52;;;;;;;;;;;;;;;24.75;45.96;101240.59;2098806;28;1071;-52
2022/07/02 05:05:52;;;;;;;;;;;;;;;24.77;46.59;101237.78;2098704;28;1138;-51
2022/07/02 05:06:52;;;;;;;;;;;;;;;24.76;46.86;101244.16;2098719;28;1146;-51
2022/07/02 05:07:53;;;;;;;;;;;;;;;24.78;47.17;101231.44;2098682;28;1246;-50
2022/07/02 05:08:53;;;;;;;;;;;;;;;24.80;47.38;101237.66;2097639;28;1898;-51
2022/07/02 05:09:53;;;;;;;;;;;;;;;24.79;47.44;101241.31;2098848;28;1067;-50
2022/07/02 05:10:54;;;;;;;;;;;;;;;24.79;48.25;101230.47;2098821;28;1173;-48
2022/07/02 05:11:54;;;;;;;;;;;;;;;24.82;48.44;101233.94;2098601;28;1087;-48
2022/07/02 05:12:54;;;;;;;;;;;;;;;24.86;48.84;101237.38;2098739;28;1122;-48
2022/07/02 05:13:55;;;;;;;;;;;;;;;24.84;48.83;101234.75;2098580;28;1103;-47
2022/07/02 05:14:55;;;;;;;;;;;;;;;24.83;48.82;101232.09;2098752;28;1145;-48
2022/07/02 05:15:55;;;;;;;;;;;;;;;24.87;48.42;101241.84;2098616;28;1241;-47
2022/07/02 05:16:55;;;;;;;;;;;;;;;24.91;48.16;101227.22;2098676;28;1098;-49